Hauptseite
METAR-TAF:

METAR-TAF

Flughäfen :

Flughafen Duschanbe

Duschanbe, Tadschikistan

Breite: 38-33N, Länge: 068-47E, Höhe: 803 m

Beobachtung

Neuester Wetterbericht von vor 30 Minuten, um 21:30 UTC
Wind 2 kt aus Ost/Südost
Temperatur 25°C
Luftfeuchtigkeit 41%
Luftdruck 1001 hPa
Sichtweite 10 km oder mehr

METAR: UTDD 162130Z 11001MPS 9999 NSC 25/11 Q1001 R09/D NOSIG RMK QFE683/0911

Zeit: 03:00 (22:00 UTC)

Prognose

Neuester Wetterbericht von vor 4 Stunden und 0 Minuten, um 18:00 UTC
Gültige Prognose vom 16 um 19 UTC bis 17 um 07 UTC
Wind 4 kt aus unterschiedlichen Richtungen
Sichtweite: 6000 m
Leicht bewölkt in der Höhe von 6600 ft, Kumulonimbus.
Aufgelockert bewölkt in der Höhe von 13000 ft

TAF: UTDD 161800Z 1619/1707 VRB02MPS 6000 FEW066CB SCT130

Wetterbeobachtungen und Prognosen von mehr als 4000 Flughäfen (METAR und TAF Bericht).

Die verfügbaren Stationen werden durch gelbe und rote Markierungen auf der Karte dargestellt.

Führen Sie die Maus auf sie, um den Namen der Station zu sehen.

Darauf klicken, um die Beobachtung von Wetterbeobachtungen und Prognosen zu sehen.

Um die Karte zu ändern : klicken Sie auf den grünen Tasten mit einem schwarzen Kreuz Zum Vergrößern, auf den grünen Button mit einem Gedankenstrich zu verkleinern, oder auf die grünen Pfeile für benachbarte Karten.


METAR-TAF: